Country Club Hills, Missouri
Current Conditions -  °F | °C
As of 1:51 AM on Saturday 25 Oct 2014 (Local Time) from KSTL Reporting Station
Scattered Clouds Scattered Clouds  
Wind Chill: 18°   Ceiling: Unl
Heat Index: 18°   Visibility: 10mi
Dew Point: 14°   Wind: 3mph
Humidity: 78%   Direction: 250°WSW
Pressure: 29.98"   Gusts: NA
Location:  38.7423°N, 90.2608°W
Report Text: KSTL 250651Z 25003KT 10SM SCT250 18/14 A2998 RMK AO2 SLP146 T01780139
Loading
Personal Weather Stations






























Interactive Weather Map
Tropical Storm Tracking
New forecast layout! Learn more

10-Day Weather Forecast

Advertisements
Track Severe Weather on mobile